Time;durP1;ratioP1;P1;durP2;ratioP2;P2;SDS_P1;SDS_P2;PMS_P1;PMS_P2;Temp;Humidity;BMP_temperature;BMP_pressure;BME280_temperature;BME280_humidity;BME280_pressure;Samples;Min_cycle;Max_cycle;Signal;HPM_P1;HPM_P2
2022/01/28 00:00:50;;;;;;;;;;;10.30;54.30;;;;;;5078655;28;19985;-70
2022/01/28 00:03:16;;;;;;;;;;;10.40;54.20;;;;;;5078643;28;19912;-70
2022/01/28 00:05:42;;;;;;;;;;;10.40;54.00;;;;;;5078640;28;19919;-70
2022/01/28 00:08:08;;;;;;;;;;;10.30;54.00;;;;;;5078600;28;19912;-70
2022/01/28 00:10:34;;;;;;;;;;;10.30;54.10;;;;;;5078567;28;19912;-71
2022/01/28 00:15:40;;;;;;;;;;;10.40;54.10;;;;;;5013030;28;1873061;-70
2022/01/28 00:36:29;;;;;;;;;;;10.40;54.10;;;;;;5079613;28;19912;-69
2022/01/28 00:37:27;;;;;;;;;;;10.30;54.20;;;;;;5079274;28;19950;-70
2022/01/28 00:39:53;;;;;;;;;;;10.20;54.40;;;;;;5079163;28;19912;-69
2022/01/28 00:42:18;;;;;;;;;;;10.30;54.30;;;;;;5077928;28;19919;-69
2022/01/28 00:44:44;;;;;;;;;;;10.30;54.20;;;;;;5079159;28;19970;-70
2022/01/28 00:47:09;;;;;;;;;;;10.40;54.20;;;;;;5079202;28;19966;-69
2022/01/28 00:49:35;;;;;;;;;;;10.40;54.20;;;;;;5079149;28;19920;-69
2022/01/28 00:52:00;;;;;;;;;;;10.40;54.20;;;;;;5079171;28;20314;-70
2022/01/28 00:54:26;;;;;;;;;;;10.40;54.10;;;;;;5078993;28;20143;-70
2022/01/28 00:56:52;;;;;;;;;;;10.40;54.10;;;;;;5079162;28;19905;-69
2022/01/28 00:59:18;;;;;;;;;;;10.50;54.20;;;;;;5081010;28;19940;-69
2022/01/28 01:01:43;;;;;;;;;;;10.50;53.80;;;;;;5082549;28;20231;-69
2022/01/28 01:04:09;;;;;;;;;;;10.40;53.80;;;;;;5082526;28;19971;-70
2022/01/28 01:06:35;;;;;;;;;;;10.30;53.90;;;;;;5082536;28;19912;-69
2022/01/28 01:09:01;;;;;;;;;;;10.30;54.10;;;;;;5082470;28;19920;-70
2022/01/28 01:11:27;;;;;;;;;;;10.30;54.10;;;;;;5082384;28;19919;-70
2022/01/28 01:13:53;;;;;;;;;;;10.30;54.10;;;;;;5082329;28;19916;-69
2022/01/28 01:16:27;;;;;;;;;;;10.30;54.20;;;;;;5082146;28;20283;-70
2022/01/28 01:21:38;;;;;;;;;;;10.20;54.50;;;;;;5082233;28;19919;-70
2022/01/28 01:24:03;;;;;;;;;;;10.30;54.40;;;;;;5082692;28;19919;-70
2022/01/28 01:26:32;;;;;;;;;;;10.30;54.40;;;;;;5082186;28;20151;-69
2022/01/28 01:28:58;;;;;;;;;;;10.40;54.20;;;;;;5082079;28;19912;-69
2022/01/28 01:31:24;;;;;;;;;;;10.40;54.10;;;;;;5082018;28;19912;-69
2022/01/28 01:34:03;;;;;;;;;;;10.40;53.70;;;;;;5081975;28;19989;-69
2022/01/28 01:36:29;;;;;;;;;;;10.30;54.00;;;;;;5082283;28;19911;-69
2022/01/28 01:38:55;;;;;;;;;;;10.20;54.20;;;;;;5081576;28;19912;-69
2022/01/28 01:41:35;;;;;;;;;;;10.20;54.20;;;;;;5081858;28;19912;-70
2022/01/28 01:44:08;;;;;;;;;;;10.20;54.20;;;;;;5081849;28;19912;-70
2022/01/28 01:52:03;;;;;;;;;;;10.30;54.10;;;;;;5081702;28;19980;-70
2022/01/28 01:54:30;;;;;;;;;;;10.20;54.20;;;;;;5081603;28;19917;-69
2022/01/28 01:56:56;;;;;;;;;;;10.20;54.30;;;;;;5081621;28;19916;-69
2022/01/28 01:59:22;;;;;;;;;;;10.30;54.40;;;;;;5081543;28;19920;-69
2022/01/28 02:01:47;;;;;;;;;;;10.40;54.20;;;;;;5081505;28;19912;-70
2022/01/28 02:04:13;;;;;;;;;;;10.40;54.30;;;;;;5081368;28;19923;-70
2022/01/28 02:06:40;;;;;;;;;;;10.40;54.30;;;;;;5081409;28;19904;-70
2022/01/28 02:09:06;;;;;;;;;;;10.40;53.80;;;;;;5081260;28;19912;-69
2022/01/28 02:11:32;;;;;;;;;;;10.30;54.00;;;;;;5080272;28;19919;-69
2022/01/28 02:13:57;;;;;;;;;;;10.20;54.20;;;;;;5081235;28;19916;-69
2022/01/28 02:16:23;;;;;;;;;;;10.20;54.40;;;;;;5081005;28;19992;-69
2022/01/28 02:18:49;;;;;;;;;;;10.10;54.40;;;;;;5081165;28;19908;-70
2022/01/28 02:21:16;;;;;;;;;;;10.20;54.50;;;;;;5081003;28;19912;-69
2022/01/28 02:23:45;;;;;;;;;;;10.20;54.30;;;;;;5080984;28;19997;-69
2022/01/28 02:26:16;;;;;;;;;;;10.20;54.40;;;;;;5081177;28;19912;-70
2022/01/28 02:28:45;;;;;;;;;;;10.20;54.40;;;;;;5080953;28;19920;-70
2022/01/28 02:31:11;;;;;;;;;;;10.40;54.20;;;;;;5080928;28;19919;-69
2022/01/28 02:33:36;;;;;;;;;;;10.40;54.10;;;;;;5080807;28;19935;-70
2022/01/28 02:36:05;;;;;;;;;;;10.40;54.00;;;;;;5080975;28;19954;-69
2022/01/28 02:38:30;;;;;;;;;;;10.50;53.90;;;;;;5080738;28;19951;-70
2022/01/28 02:40:58;;;;;;;;;;;10.50;53.80;;;;;;5080704;28;19912;-70
2022/01/28 02:45:53;;;;;;;;;;;10.30;53.90;;;;;;5080835;28;19919;-69
2022/01/28 02:48:23;;;;;;;;;;;10.30;54.00;;;;;;5080813;28;19912;-70
2022/01/28 02:53:26;;;;;;;;;;;10.30;54.20;;;;;;5080349;28;19916;-70
2022/01/28 02:56:03;;;;;;;;;;;10.20;54.30;;;;;;5080394;28;19912;-69
2022/01/28 02:58:29;;;;;;;;;;;10.20;54.30;;;;;;5080590;28;19913;-69
2022/01/28 03:00:55;;;;;;;;;;;10.10;54.40;;;;;;5080308;28;19995;-69
2022/01/28 03:03:24;;;;;;;;;;;10.20;54.50;;;;;;5080227;28;19912;-70
2022/01/28 03:05:50;;;;;;;;;;;10.20;54.70;;;;;;5080228;28;19911;-69
2022/01/28 03:08:16;;;;;;;;;;;10.30;54.60;;;;;;5080158;28;19978;-70
2022/01/28 03:10:48;;;;;;;;;;;10.30;54.50;;;;;;5080186;28;19912;-70
2022/01/28 03:13:27;;;;;;;;;;;10.40;54.30;;;;;;5080312;28;19923;-69
2022/01/28 03:15:55;;;;;;;;;;;10.40;53.90;;;;;;5079920;28;20442;-69
2022/01/28 03:18:28;;;;;;;;;;;10.30;54.00;;;;;;5079984;28;19912;-69
2022/01/28 03:23:19;;;;;;;;;;;10.20;54.20;;;;;;5080156;28;19905;-70
2022/01/28 03:25:46;;;;;;;;;;;10.20;54.20;;;;;;5079991;28;19928;-69
2022/01/28 03:28:13;;;;;;;;;;;10.30;54.30;;;;;;5079896;28;19958;-69
2022/01/28 03:30:39;;;;;;;;;;;10.30;54.30;;;;;;5079965;28;19905;-69
2022/01/28 03:33:05;;;;;;;;;;;10.30;54.20;;;;;;5079851;28;19923;-69
2022/01/28 03:35:31;;;;;;;;;;;10.20;54.20;;;;;;5079851;28;19919;-70
2022/01/28 03:38:01;;;;;;;;;;;10.10;54.40;;;;;;5079825;28;19913;-70
2022/01/28 03:40:27;;;;;;;;;;;10.20;54.40;;;;;;5079744;28;19944;-69
2022/01/28 03:42:53;;;;;;;;;;;10.20;54.70;;;;;;5078406;28;20370;-70
2022/01/28 03:45:19;;;;;;;;;;;10.30;54.60;;;;;;5079741;28;19905;-70
2022/01/28 03:47:44;;;;;;;;;;;10.30;54.40;;;;;;5079625;28;20224;-69
2022/01/28 03:50:10;;;;;;;;;;;10.30;54.00;;;;;;5079715;28;19947;-70
2022/01/28 03:52:35;;;;;;;;;;;10.30;54.00;;;;;;5079591;28;19916;-70
2022/01/28 03:55:02;;;;;;;;;;;10.30;54.10;;;;;;5079612;28;19924;-70
2022/01/28 03:57:27;;;;;;;;;;;10.30;54.10;;;;;;5080096;28;19912;-70
2022/01/28 03:59:53;;;;;;;;;;;10.30;54.20;;;;;;5079534;28;20213;-70
2022/01/28 04:02:22;;;;;;;;;;;10.20;54.30;;;;;;5078340;28;19913;-70
2022/01/28 04:12:51;;;;;;;;;;;10.30;54.20;;;;;;5079523;28;20216;-70
2022/01/28 04:17:49;;;;;;;;;;;10.20;54.30;;;;;;5079345;28;19917;-70
2022/01/28 04:20:14;;;;;;;;;;;10.20;54.20;;;;;;5079339;28;20280;-70
2022/01/28 04:22:40;;;;;;;;;;;10.30;54.20;;;;;;5079327;28;19912;-69
2022/01/28 04:25:06;;;;;;;;;;;10.30;54.30;;;;;;5079269;28;20228;-70
2022/01/28 04:27:31;;;;;;;;;;;10.30;54.50;;;;;;5079338;28;19912;-69
2022/01/28 04:29:57;;;;;;;;;;;10.30;54.40;;;;;;5079257;28;19913;-69
2022/01/28 04:32:25;;;;;;;;;;;10.30;54.20;;;;;;5079312;28;19919;-70
2022/01/28 04:34:53;;;;;;;;;;;10.30;54.10;;;;;;5082121;28;20003;-71
2022/01/28 04:38:01;;;;;;;;;;;10.30;54.10;;;;;;5083082;28;19951;-71
2022/01/28 05:03:45;;;;;;;;;;;10.30;54.20;;;;;;5082632;28;19975;-70
2022/01/28 05:16:29;;;;;;;;;;;10.20;54.30;;;;;;5082317;28;20180;-70
2022/01/28 05:24:59;;;;;;;;;;;10.10;54.70;;;;;;5079928;28;20156;-70
2022/01/28 05:27:14;;;;;;;;;;;10.10;54.50;;;;;;5081997;28;19913;-70
2022/01/28 05:29:39;;;;;;;;;;;10.20;54.40;;;;;;5082108;28;19904;-69
2022/01/28 05:32:08;;;;;;;;;;;10.20;54.40;;;;;;5082072;28;20176;-70
2022/01/28 05:34:34;;;;;;;;;;;10.20;54.40;;;;;;5081927;28;19920;-70
2022/01/28 05:36:59;;;;;;;;;;;10.20;54.30;;;;;;5081906;28;19913;-69
2022/01/28 05:39:25;;;;;;;;;;;10.20;54.30;;;;;;5081902;28;19919;-70
2022/01/28 05:41:50;;;;;;;;;;;10.30;54.30;;;;;;5081870;28;19978;-69
2022/01/28 05:44:18;;;;;;;;;;;10.20;54.30;;;;;;5081650;28;19919;-69
2022/01/28 05:46:45;;;;;;;;;;;10.20;54.30;;;;;;5080481;28;20116;-69
2022/01/28 05:49:10;;;;;;;;;;;10.20;54.40;;;;;;5081717;28;19924;-70
2022/01/28 05:51:36;;;;;;;;;;;10.20;54.30;;;;;;5081653;28;19919;-70
2022/01/28 05:54:01;;;;;;;;;;;10.20;54.40;;;;;;5081528;28;20266;-70
2022/01/28 05:56:27;;;;;;;;;;;10.10;54.40;;;;;;5081582;28;19917;-69
2022/01/28 05:58:54;;;;;;;;;;;10.10;54.50;;;;;;5081451;28;19919;-70
2022/01/28 06:01:19;;;;;;;;;;;10.10;54.60;;;;;;5081479;28;19912;-69
2022/01/28 06:03:47;;;;;;;;;;;10.10;54.60;;;;;;5081397;28;19913;-69
2022/01/28 06:06:20;;;;;;;;;;;10.10;54.70;;;;;;5081316;28;19919;-70
2022/01/28 06:08:46;;;;;;;;;;;10.10;54.60;;;;;;5081297;28;19919;-73
2022/01/28 06:11:12;;;;;;;;;;;10.20;54.50;;;;;;5081335;28;19940;-70
2022/01/28 06:13:37;;;;;;;;;;;10.20;54.70;;;;;;5079871;28;19987;-70
2022/01/28 06:16:03;;;;;;;;;;;10.20;54.40;;;;;;5081009;28;19931;-70
2022/01/28 06:18:28;;;;;;;;;;;10.30;54.40;;;;;;5079799;28;19912;-70
2022/01/28 06:20:54;;;;;;;;;;;10.20;54.30;;;;;;5081081;28;19911;-70
2022/01/28 06:23:20;;;;;;;;;;;10.20;54.30;;;;;;5081029;28;19913;-70
2022/01/28 06:25:47;;;;;;;;;;;10.20;54.40;;;;;;5080995;28;19913;-70
2022/01/28 06:28:12;;;;;;;;;;;10.20;54.40;;;;;;5080879;28;19963;-71
2022/01/28 06:30:38;;;;;;;;;;;10.20;55.10;;;;;;5080854;28;20197;-70
2022/01/28 06:33:03;;;;;;;;;;;10.10;54.50;;;;;;5080650;28;20188;-70
2022/01/28 06:35:29;;;;;;;;;;;10.10;54.60;;;;;;5080780;28;20161;-70
2022/01/28 06:37:54;;;;;;;;;;;10.10;54.50;;;;;;5080734;28;19983;-70
2022/01/28 06:40:20;;;;;;;;;;;10.10;54.50;;;;;;5080651;28;19912;-71
2022/01/28 06:42:46;;;;;;;;;;;10.10;54.50;;;;;;5080641;28;19913;-71
2022/01/28 06:45:12;;;;;;;;;;;10.20;54.40;;;;;;5080555;28;19919;-70
2022/01/28 06:47:37;;;;;;;;;;;10.20;54.60;;;;;;5080505;28;19913;-70
2022/01/28 06:50:05;;;;;;;;;;;10.30;54.60;;;;;;5080468;28;19934;-70
2022/01/28 06:52:31;;;;;;;;;;;10.40;54.20;;;;;;5080415;28;19912;-70
2022/01/28 06:54:56;;;;;;;;;;;10.40;54.00;;;;;;5080277;28;19974;-71
2022/01/28 06:57:22;;;;;;;;;;;10.40;53.90;;;;;;5079841;28;19912;-70
2022/01/28 06:59:47;;;;;;;;;;;10.30;53.90;;;;;;5080315;28;19972;-70
2022/01/28 07:02:13;;;;;;;;;;;10.30;54.10;;;;;;5080259;28;19912;-70
2022/01/28 07:04:39;;;;;;;;;;;10.20;54.20;;;;;;5080195;28;19904;-70
2022/01/28 07:07:05;;;;;;;;;;;10.20;54.40;;;;;;5080133;28;19983;-70
2022/01/28 07:09:31;;;;;;;;;;;10.20;54.50;;;;;;5078829;28;19912;-70
2022/01/28 07:11:57;;;;;;;;;;;10.20;54.50;;;;;;5080089;28;20022;-70
2022/01/28 07:14:22;;;;;;;;;;;10.20;54.40;;;;;;5078659;28;19916;-70
2022/01/28 07:16:48;;;;;;;;;;;10.30;54.50;;;;;;5079876;28;19939;-69
2022/01/28 07:19:13;;;;;;;;;;;10.30;54.50;;;;;;5078632;28;19908;-70
2022/01/28 07:21:39;;;;;;;;;;;10.30;54.20;;;;;;5080004;28;19912;-70
2022/01/28 07:24:05;;;;;;;;;;;10.30;54.30;;;;;;5079947;28;19912;-70
2022/01/28 07:26:30;;;;;;;;;;;10.40;54.30;;;;;;5079900;28;19934;-70
2022/01/28 07:28:56;;;;;;;;;;;10.50;54.20;;;;;;5079894;28;20120;-70
2022/01/28 07:31:22;;;;;;;;;;;10.50;54.20;;;;;;5079932;28;20101;-70
2022/01/28 07:33:47;;;;;;;;;;;10.50;54.00;;;;;;5078511;28;20212;-71
2022/01/28 07:36:13;;;;;;;;;;;10.40;53.70;;;;;;5079773;28;19912;-70
2022/01/28 07:38:39;;;;;;;;;;;10.30;53.90;;;;;;5079749;28;19904;-70
2022/01/28 07:41:04;;;;;;;;;;;10.30;54.20;;;;;;5079745;28;19970;-70
2022/01/28 07:43:30;;;;;;;;;;;10.20;54.30;;;;;;5079643;28;20117;-71
2022/01/28 07:45:56;;;;;;;;;;;10.20;54.40;;;;;;5078315;28;19920;-71
2022/01/28 07:48:21;;;;;;;;;;;10.30;54.40;;;;;;5079628;28;19913;-71
2022/01/28 07:50:47;;;;;;;;;;;10.40;54.40;;;;;;5079656;28;19942;-70
2022/01/28 07:53:16;;;;;;;;;;;10.40;54.30;;;;;;5079555;28;20205;-70
2022/01/28 07:55:42;;;;;;;;;;;10.40;54.20;;;;;;5079635;28;20116;-69
2022/01/28 07:58:08;;;;;;;;;;;10.50;54.20;;;;;;5079600;28;19913;-70
2022/01/28 08:00:33;;;;;;;;;;;10.50;54.20;;;;;;5079491;28;19979;-70
2022/01/28 08:02:59;;;;;;;;;;;10.50;54.10;;;;;;5079613;28;19979;-70
2022/01/28 08:05:25;;;;;;;;;;;10.50;54.00;;;;;;5078191;28;19912;-70
2022/01/28 08:07:51;;;;;;;;;;;10.50;54.00;;;;;;5078204;28;19951;-70
2022/01/28 08:10:17;;;;;;;;;;;10.60;53.90;;;;;;5083348;28;19940;-70
2022/01/28 08:12:43;;;;;;;;;;;10.50;53.70;;;;;;5083556;28;20235;-69
2022/01/28 08:15:09;;;;;;;;;;;10.40;54.00;;;;;;5083441;28;19916;-70
2022/01/28 08:17:34;;;;;;;;;;;10.40;54.10;;;;;;5083285;28;19916;-69
2022/01/28 08:20:00;;;;;;;;;;;10.40;54.80;;;;;;5083339;28;19912;-70
2022/01/28 08:22:25;;;;;;;;;;;10.40;54.30;;;;;;5083271;28;19944;-70
2022/01/28 08:24:51;;;;;;;;;;;10.50;54.10;;;;;;5083271;28;19912;-70
2022/01/28 08:27:16;;;;;;;;;;;10.50;54.10;;;;;;5083206;28;19955;-70
2022/01/28 08:29:42;;;;;;;;;;;10.50;54.20;;;;;;5083186;28;19912;-70
2022/01/28 08:32:07;;;;;;;;;;;10.50;54.20;;;;;;5083103;28;19934;-70
2022/01/28 08:34:33;;;;;;;;;;;10.50;54.10;;;;;;5083020;28;20009;-70
2022/01/28 08:37:03;;;;;;;;;;;10.50;54.10;;;;;;5083281;28;19905;-70
2022/01/28 08:39:29;;;;;;;;;;;10.50;54.10;;;;;;5083278;28;20331;-69
2022/01/28 08:41:55;;;;;;;;;;;10.50;54.10;;;;;;5082898;28;19908;-69
2022/01/28 08:44:20;;;;;;;;;;;10.50;54.30;;;;;;5082907;28;19944;-70
2022/01/28 08:46:46;;;;;;;;;;;10.50;53.90;;;;;;5082828;28;19919;-70
2022/01/28 08:49:11;;;;;;;;;;;10.40;54.00;;;;;;5082788;28;19912;-70
2022/01/28 08:51:37;;;;;;;;;;;10.40;54.20;;;;;;5082723;28;19920;-70
2022/01/28 08:54:02;;;;;;;;;;;10.40;54.10;;;;;;5081393;28;20425;-70
2022/01/28 08:56:28;;;;;;;;;;;10.50;54.20;;;;;;5082634;28;19920;-70
2022/01/28 08:58:53;;;;;;;;;;;10.50;54.10;;;;;;5082564;28;19905;-70
2022/01/28 09:01:19;;;;;;;;;;;10.40;54.20;;;;;;5082574;28;19904;-70
2022/01/28 09:03:45;;;;;;;;;;;10.50;54.10;;;;;;5082567;28;19913;-70
2022/01/28 09:06:11;;;;;;;;;;;10.50;54.10;;;;;;5082443;28;19947;-70
2022/01/28 09:08:39;;;;;;;;;;;10.50;54.10;;;;;;5082499;28;20208;-70
2022/01/28 09:13:48;;;;;;;;;;;10.50;54.10;;;;;;5082421;28;19917;-70
2022/01/28 09:16:14;;;;;;;;;;;10.50;54.10;;;;;;5082155;28;19916;-70
2022/01/28 09:18:40;;;;;;;;;;;10.50;54.10;;;;;;5082277;28;20216;-70
2022/01/28 09:21:05;;;;;;;;;;;10.50;54.20;;;;;;5081797;28;19913;-70
2022/01/28 09:23:31;;;;;;;;;;;10.50;54.10;;;;;;5082131;28;19912;-70
2022/01/28 09:25:56;;;;;;;;;;;10.60;54.00;;;;;;5082172;28;20223;-70
2022/01/28 09:28:22;;;;;;;;;;;10.60;53.80;;;;;;5082148;28;20240;-70
2022/01/28 09:30:48;;;;;;;;;;;10.60;53.90;;;;;;5082092;28;19912;-71
2022/01/28 09:33:14;;;;;;;;;;;10.60;53.80;;;;;;5081889;28;19916;-69
2022/01/28 09:35:41;;;;;;;;;;;10.60;53.90;;;;;;5082007;28;19976;-70
2022/01/28 09:38:07;;;;;;;;;;;10.60;53.80;;;;;;5081860;28;19944;-70
2022/01/28 09:40:32;;;;;;;;;;;10.60;53.90;;;;;;5081912;28;20239;-70
2022/01/28 09:43:01;;;;;;;;;;;10.60;53.80;;;;;;5081832;28;19954;-70
2022/01/28 09:45:26;;;;;;;;;;;10.60;53.80;;;;;;5081779;28;19927;-70
2022/01/28 09:47:54;;;;;;;;;;;10.60;53.80;;;;;;5081745;28;19938;-69
2022/01/28 09:50:21;;;;;;;;;;;10.70;53.80;;;;;;5081720;28;19939;-70
2022/01/28 09:52:47;;;;;;;;;;;10.70;53.80;;;;;;5081588;28;19913;-69
2022/01/28 09:55:13;;;;;;;;;;;10.70;53.80;;;;;;5081518;28;19916;-69
2022/01/28 09:57:39;;;;;;;;;;;10.70;53.70;;;;;;5081639;28;19980;-69
2022/01/28 10:00:05;;;;;;;;;;;10.70;53.60;;;;;;5081540;28;19905;-70
2022/01/28 10:02:46;;;;;;;;;;;10.70;53.60;;;;;;5081486;28;20128;-70
2022/01/28 10:05:28;;;;;;;;;;;10.70;53.60;;;;;;5081514;28;19919;-69
2022/01/28 10:08:04;;;;;;;;;;;10.70;53.60;;;;;;5081442;28;19904;-69
2022/01/28 10:10:42;;;;;;;;;;;10.80;53.70;;;;;;5081392;28;19912;-70
2022/01/28 10:13:12;;;;;;;;;;;10.80;53.80;;;;;;5081247;28;19913;-71
2022/01/28 10:15:51;;;;;;;;;;;10.70;53.80;;;;;;5081127;28;20419;-70
2022/01/28 10:18:17;;;;;;;;;;;10.80;53.70;;;;;;5081110;28;19954;-70
2022/01/28 10:20:43;;;;;;;;;;;10.80;53.70;;;;;;5081129;28;19917;-70
2022/01/28 10:23:12;;;;;;;;;;;10.70;53.70;;;;;;5081041;28;19912;-70
2022/01/28 10:25:38;;;;;;;;;;;10.80;53.80;;;;;;5080982;28;20330;-71
2022/01/28 10:28:04;;;;;;;;;;;10.80;53.80;;;;;;5080974;28;19905;-70
2022/01/28 10:30:34;;;;;;;;;;;10.70;53.80;;;;;;5080632;28;19941;-70
2022/01/28 10:33:16;;;;;;;;;;;10.80;53.80;;;;;;5080396;28;19911;-70
2022/01/28 10:35:58;;;;;;;;;;;10.70;53.80;;;;;;5080784;28;19917;-71
2022/01/28 10:38:31;;;;;;;;;;;10.80;53.80;;;;;;5079412;28;19911;-70
2022/01/28 10:41:06;;;;;;;;;;;10.80;53.70;;;;;;5079431;28;20204;-69
2022/01/28 10:43:32;;;;;;;;;;;10.80;53.80;;;;;;5080661;28;19940;-70
2022/01/28 10:46:04;;;;;;;;;;;10.80;53.70;;;;;;5080609;28;19920;-69
2022/01/28 10:48:29;;;;;;;;;;;10.80;53.80;;;;;;5080604;28;19911;-70
2022/01/28 10:50:57;;;;;;;;;;;10.80;53.80;;;;;;5080523;28;19912;-70
2022/01/28 10:53:25;;;;;;;;;;;10.70;53.80;;;;;;5080352;28;19919;-70
2022/01/28 10:55:53;;;;;;;;;;;10.80;53.90;;;;;;5080465;28;19919;-70
2022/01/28 10:58:20;;;;;;;;;;;10.70;53.90;;;;;;5079187;28;19969;-70
2022/01/28 11:00:47;;;;;;;;;;;10.70;54.00;;;;;;5079149;28;19923;-69
2022/01/28 11:03:13;;;;;;;;;;;10.70;54.10;;;;;;5080274;28;19988;-71
2022/01/28 11:05:39;;;;;;;;;;;10.70;54.20;;;;;;5080256;28;19904;-70
2022/01/28 11:08:06;;;;;;;;;;;10.70;54.20;;;;;;5080203;28;19912;-70
2022/01/28 11:10:32;;;;;;;;;;;10.70;54.20;;;;;;5080183;28;19920;-71
2022/01/28 11:12:58;;;;;;;;;;;10.70;54.00;;;;;;5080167;28;19914;-69
2022/01/28 11:15:24;;;;;;;;;;;10.70;54.00;;;;;;5079875;28;19908;-70
2022/01/28 11:17:51;;;;;;;;;;;10.80;54.10;;;;;;5080011;28;19939;-70
2022/01/28 11:20:21;;;;;;;;;;;10.70;53.80;;;;;;5079980;28;19912;-70
2022/01/28 11:22:52;;;;;;;;;;;10.70;54.10;;;;;;5079970;28;19913;-70
2022/01/28 11:25:19;;;;;;;;;;;10.70;54.00;;;;;;5079962;28;19944;-70
2022/01/28 11:27:46;;;;;;;;;;;10.70;53.90;;;;;;5079915;28;19904;-70
2022/01/28 11:30:22;;;;;;;;;;;10.70;54.00;;;;;;5079903;28;19913;-70
2022/01/28 11:33:00;;;;;;;;;;;10.70;53.90;;;;;;5079949;28;20217;-70
2022/01/28 11:35:37;;;;;;;;;;;10.70;53.90;;;;;;5079785;28;20263;-71
2022/01/28 11:38:21;;;;;;;;;;;10.70;54.10;;;;;;5079903;28;20152;-70
2022/01/28 11:40:51;;;;;;;;;;;10.70;54.20;;;;;;5079830;28;20295;-70
2022/01/28 11:43:20;;;;;;;;;;;10.70;54.30;;;;;;5079622;28;20098;-70
2022/01/28 11:45:46;;;;;;;;;;;10.60;54.30;;;;;;5079718;28;19979;-71
2022/01/28 11:48:12;;;;;;;;;;;10.70;54.30;;;;;;5078469;28;19912;-71
2022/01/28 11:50:38;;;;;;;;;;;10.70;54.20;;;;;;5079764;28;20014;-71
2022/01/28 11:53:21;;;;;;;;;;;10.70;54.20;;;;;;5079693;28;19943;-71
2022/01/28 11:55:59;;;;;;;;;;;10.70;54.20;;;;;;5079693;28;19921;-69
2022/01/28 11:58:45;;;;;;;;;;;10.70;54.20;;;;;;5078402;28;19939;-70
2022/01/28 12:01:10;;;;;;;;;;;10.70;54.10;;;;;;5079704;28;19951;-71
2022/01/28 12:03:37;;;;;;;;;;;10.70;54.10;;;;;;5079598;28;19911;-70
2022/01/28 12:06:07;;;;;;;;;;;10.70;54.10;;;;;;5079581;28;19912;-69
2022/01/28 12:08:32;;;;;;;;;;;10.70;54.00;;;;;;5079580;28;19935;-69
2022/01/28 12:11:01;;;;;;;;;;;10.70;54.20;;;;;;5078319;28;20208;-69
2022/01/28 12:13:49;;;;;;;;;;;10.70;54.20;;;;;;5079419;28;19950;-69
2022/01/28 12:16:27;;;;;;;;;;;10.70;54.80;;;;;;5079264;28;19916;-70
2022/01/28 12:18:56;;;;;;;;;;;10.70;54.30;;;;;;5079453;28;19913;-70
2022/01/28 12:21:22;;;;;;;;;;;10.70;54.30;;;;;;5079356;28;19975;-70
2022/01/28 12:23:48;;;;;;;;;;;10.70;54.20;;;;;;5079337;28;19920;-69
2022/01/28 12:26:17;;;;;;;;;;;10.70;54.20;;;;;;5079325;28;19972;-69
2022/01/28 12:28:53;;;;;;;;;;;10.70;54.20;;;;;;5079409;28;20098;-70
2022/01/28 12:31:21;;;;;;;;;;;10.70;54.10;;;;;;5079341;28;20166;-70
2022/01/28 12:33:51;;;;;;;;;;;10.70;54.10;;;;;;5079151;28;19917;-70
2022/01/28 12:36:18;;;;;;;;;;;10.70;54.10;;;;;;5079279;28;19913;-71
2022/01/28 12:38:58;;;;;;;;;;;10.70;54.10;;;;;;5079200;28;19905;-70
2022/01/28 12:41:25;;;;;;;;;;;10.70;54.10;;;;;;5079099;28;19912;-70
2022/01/28 12:43:51;;;;;;;;;;;10.70;54.20;;;;;;5079168;28;19913;-70
2022/01/28 12:46:17;;;;;;;;;;;10.70;54.20;;;;;;5079186;28;19912;-70
2022/01/28 12:48:50;;;;;;;;;;;10.70;54.20;;;;;;5078128;28;20106;-70
2022/01/28 12:51:16;;;;;;;;;;;10.70;54.20;;;;;;5079145;28;19920;-70
2022/01/28 12:53:44;;;;;;;;;;;10.70;54.20;;;;;;5079039;28;19923;-70
2022/01/28 12:56:10;;;;;;;;;;;10.70;54.30;;;;;;5082391;28;19911;-70
2022/01/28 12:58:45;;;;;;;;;;;10.70;54.30;;;;;;5082695;28;19912;-70
2022/01/28 13:01:12;;;;;;;;;;;10.70;54.20;;;;;;5082658;28;19958;-70
2022/01/28 13:04:03;;;;;;;;;;;10.70;54.20;;;;;;5082674;28;19983;-70
2022/01/28 13:09:13;;;;;;;;;;;10.70;54.10;;;;;;5081132;28;20148;-70
2022/01/28 13:11:43;;;;;;;;;;;10.70;54.20;;;;;;5081206;28;19949;-70
2022/01/28 13:14:09;;;;;;;;;;;10.70;54.20;;;;;;5082332;28;19988;-69
2022/01/28 13:16:36;;;;;;;;;;;10.70;54.10;;;;;;5082097;28;19921;-70
2022/01/28 13:19:03;;;;;;;;;;;10.70;54.20;;;;;;5082387;28;19908;-69
2022/01/28 13:21:29;;;;;;;;;;;10.70;54.20;;;;;;5081112;28;19916;-70
2022/01/28 13:24:04;;;;;;;;;;;10.70;54.20;;;;;;5082265;28;19916;-71
2022/01/28 13:26:29;;;;;;;;;;;10.70;54.10;;;;;;5082228;28;19910;-70
2022/01/28 13:29:08;;;;;;;;;;;10.80;54.10;;;;;;5082173;28;19947;-70
2022/01/28 13:31:34;;;;;;;;;;;10.70;54.10;;;;;;5082090;28;19904;-69
2022/01/28 13:34:01;;;;;;;;;;;10.70;54.20;;;;;;5082097;28;19916;-69
2022/01/28 13:36:42;;;;;;;;;;;10.70;54.20;;;;;;5082004;28;19919;-70
2022/01/28 13:39:28;;;;;;;;;;;10.70;54.10;;;;;;5081602;28;19980;-70
2022/01/28 13:42:08;;;;;;;;;;;10.70;54.00;;;;;;5081807;28;19943;-70
2022/01/28 13:44:34;;;;;;;;;;;10.70;54.10;;;;;;5081878;28;19920;-70
2022/01/28 13:47:01;;;;;;;;;;;10.70;54.10;;;;;;5081885;28;19905;-69
2022/01/28 13:49:32;;;;;;;;;;;10.70;54.10;;;;;;5081871;28;19919;-69
2022/01/28 13:52:13;;;;;;;;;;;10.70;54.10;;;;;;5081874;28;19917;-69
2022/01/28 13:54:38;;;;;;;;;;;10.70;54.20;;;;;;5081675;28;19923;-70
2022/01/28 13:57:05;;;;;;;;;;;10.70;54.20;;;;;;5081726;28;19904;-69
2022/01/28 13:59:32;;;;;;;;;;;10.70;54.00;;;;;;5081614;28;19919;-70
2022/01/28 14:01:59;;;;;;;;;;;10.70;54.70;;;;;;5081621;28;19951;-70
2022/01/28 14:04:37;;;;;;;;;;;10.80;54.10;;;;;;5081539;28;19911;-70
2022/01/28 14:07:12;;;;;;;;;;;10.70;54.00;;;;;;5080315;28;19912;-70
2022/01/28 14:09:44;;;;;;;;;;;10.70;54.20;;;;;;5080279;28;19987;-70
2022/01/28 14:12:13;;;;;;;;;;;10.70;54.30;;;;;;5081385;28;20182;-70
2022/01/28 14:14:46;;;;;;;;;;;10.70;54.20;;;;;;5081319;28;19948;-70
2022/01/28 14:17:12;;;;;;;;;;;10.70;54.20;;;;;;5081193;28;19925;-70
2022/01/28 14:19:38;;;;;;;;;;;10.70;54.20;;;;;;5081345;28;19913;-70
2022/01/28 14:22:06;;;;;;;;;;;10.70;54.20;;;;;;5081129;28;19904;-70
2022/01/28 14:24:32;;;;;;;;;;;10.70;54.20;;;;;;5081183;28;19940;-70
2022/01/28 14:32:18;;;;;;;;;;;10.70;54.20;;;;;;5081015;28;20253;-70
2022/01/28 14:34:44;;;;;;;;;;;10.70;54.10;;;;;;5080883;28;19916;-71
2022/01/28 14:37:10;;;;;;;;;;;10.70;54.20;;;;;;5080899;28;19908;-70
2022/01/28 14:39:36;;;;;;;;;;;10.70;54.10;;;;;;5080896;28;20146;-70
2022/01/28 14:42:03;;;;;;;;;;;10.70;54.10;;;;;;5080880;28;20152;-71
2022/01/28 14:44:36;;;;;;;;;;;10.70;54.10;;;;;;5080741;28;19962;-70
2022/01/28 14:47:02;;;;;;;;;;;10.70;54.20;;;;;;5080675;28;19909;-71
2022/01/28 14:49:27;;;;;;;;;;;10.70;54.10;;;;;;5080585;28;20120;-70
2022/01/28 14:51:56;;;;;;;;;;;10.70;54.10;;;;;;5080629;28;19913;-70
2022/01/28 14:54:26;;;;;;;;;;;10.70;54.00;;;;;;5080468;28;19923;-70
2022/01/28 14:56:59;;;;;;;;;;;10.70;54.20;;;;;;5080590;28;20132;-70
2022/01/28 14:59:25;;;;;;;;;;;10.70;54.20;;;;;;5080510;28;19904;-71
2022/01/28 15:01:51;;;;;;;;;;;10.70;54.40;;;;;;5080466;28;19935;-70
2022/01/28 15:04:16;;;;;;;;;;;10.70;54.40;;;;;;5080398;28;19965;-71
2022/01/28 15:06:43;;;;;;;;;;;10.70;54.30;;;;;;5080361;28;20350;-70
2022/01/28 15:09:10;;;;;;;;;;;10.70;54.20;;;;;;5079102;28;19916;-70
2022/01/28 15:11:48;;;;;;;;;;;10.70;54.20;;;;;;5080332;28;19916;-70
2022/01/28 15:14:21;;;;;;;;;;;10.80;54.10;;;;;;5080220;28;19908;-70
2022/01/28 15:16:47;;;;;;;;;;;10.70;54.20;;;;;;5079882;28;19931;-70
2022/01/28 15:19:13;;;;;;;;;;;10.70;54.30;;;;;;5078893;28;19919;-70
2022/01/28 15:21:39;;;;;;;;;;;10.70;54.20;;;;;;5080261;28;19904;-69
2022/01/28 15:24:04;;;;;;;;;;;10.70;54.30;;;;;;5080089;28;19944;-70
2022/01/28 15:26:30;;;;;;;;;;;10.70;54.30;;;;;;5080146;28;19918;-70
2022/01/28 15:29:05;;;;;;;;;;;10.70;54.20;;;;;;5080009;28;19919;-70
2022/01/28 15:34:28;;;;;;;;;;;10.70;54.20;;;;;;5080022;28;19923;-69
2022/01/28 15:36:54;;;;;;;;;;;10.70;54.30;;;;;;5080044;28;19908;-69
2022/01/28 15:39:19;;;;;;;;;;;10.70;54.20;;;;;;5079999;28;19911;-70
2022/01/28 15:41:46;;;;;;;;;;;10.70;54.20;;;;;;5079959;28;19912;-70
2022/01/28 15:44:11;;;;;;;;;;;10.70;54.10;;;;;;5079973;28;20135;-70
2022/01/28 15:46:40;;;;;;;;;;;10.70;54.20;;;;;;5079949;28;19916;-70
2022/01/28 15:49:06;;;;;;;;;;;10.70;54.20;;;;;;5079929;28;19921;-70
2022/01/28 15:51:32;;;;;;;;;;;10.70;54.40;;;;;;5079868;28;20104;-70
2022/01/28 15:53:58;;;;;;;;;;;10.70;54.30;;;;;;5079764;28;19916;-69
2022/01/28 15:56:24;;;;;;;;;;;10.70;54.20;;;;;;5079777;28;20388;-70
2022/01/28 15:58:49;;;;;;;;;;;10.70;54.20;;;;;;5080133;28;19908;-70